Time;durP1;ratioP1;P1;durP2;ratioP2;P2;SDS_P1;SDS_P2;PMS_P1;PMS_P2;Temp;Humidity;BMP_temperature;BMP_pressure;BME280_temperature;BME280_humidity;BME280_pressure;Samples;Min_cycle;Max_cycle;Signal;HPM_P1;HPM_P2
2022/09/06 00:00:58;;;;;;;;;;;;;;;23.21;26.04;101102.94;5065033;28;19993;-86
2022/09/06 00:03:27;;;;;;;;;;;;;;;23.18;26.10;101101.44;5057803;28;19958;-87
2022/09/06 00:05:55;;;;;;;;;;;;;;;23.17;26.46;101102.50;5066810;28;20452;-86
2022/09/06 00:08:32;;;;;;;;;;;;;;;23.16;26.29;101100.81;5065767;28;20371;-86
2022/09/06 00:11:00;;;;;;;;;;;;;;;23.14;26.24;101111.28;5089712;28;20363;-87
2022/09/06 00:13:28;;;;;;;;;;;;;;;23.14;26.37;101113.22;5070990;28;19921;-86
2022/09/06 00:16:03;;;;;;;;;;;;;;;23.14;26.47;101124.38;5073417;28;19986;-86
2022/09/06 00:18:31;;;;;;;;;;;;;;;23.14;26.52;101149.50;5076656;28;19925;-86
2022/09/06 00:21:00;;;;;;;;;;;;;;;23.13;26.35;101189.66;5066642;28;19943;-86
2022/09/06 00:23:28;;;;;;;;;;;;;;;23.13;26.51;101186.88;5062602;28;20010;-86
2022/09/06 00:26:01;;;;;;;;;;;;;;;23.12;26.17;101180.44;5073783;28;19927;-85
2022/09/06 00:28:29;;;;;;;;;;;;;;;23.10;26.10;101198.44;5068486;28;20011;-85
2022/09/06 00:31:07;;;;;;;;;;;;;;;23.07;26.09;101222.09;5091045;28;19920;-85
2022/09/06 00:33:35;;;;;;;;;;;;;;;23.07;26.42;101212.84;5082862;28;19946;-85
2022/09/06 00:36:04;;;;;;;;;;;;;;;23.04;26.09;101208.53;5071854;28;20295;-85
2022/09/06 00:38:32;;;;;;;;;;;;;;;23.03;26.29;101217.97;5068547;28;20350;-86
2022/09/06 00:41:00;;;;;;;;;;;;;;;23.01;26.28;101228.47;5074380;28;19920;-85
2022/09/06 00:43:28;;;;;;;;;;;;;;;23.00;26.03;101224.81;5069495;28;20037;-86
2022/09/06 00:46:01;;;;;;;;;;;;;;;22.99;26.55;101225.06;5074619;28;20592;-86
2022/09/06 00:48:29;;;;;;;;;;;;;;;22.98;26.25;101226.97;5070159;28;19927;-86
2022/09/06 00:50:59;;;;;;;;;;;;;;;22.99;26.10;101236.22;5080055;28;19921;-86
2022/09/06 00:53:27;;;;;;;;;;;;;;;22.98;26.23;101257.69;5080316;28;19951;-85
2022/09/06 00:55:56;;;;;;;;;;;;;;;22.98;26.33;101254.03;5081259;28;19962;-85
2022/09/06 00:58:25;;;;;;;;;;;;;;;22.98;26.32;101248.44;5056363;28;19960;-86
2022/09/06 01:00:53;;;;;;;;;;;;;;;22.99;26.55;101258.56;5071457;28;19947;-84
2022/09/06 01:03:23;;;;;;;;;;;;;;;22.97;26.46;101250.38;5066456;28;19964;-86
2022/09/06 01:05:57;;;;;;;;;;;;;;;22.97;26.51;101250.38;5064506;28;19921;-85
2022/09/06 01:08:33;;;;;;;;;;;;;;;22.98;26.70;101254.03;5066834;28;19970;-86
2022/09/06 01:11:10;;;;;;;;;;;;;;;22.97;27.32;101242.00;5069818;28;20003;-84
2022/09/06 01:13:45;;;;;;;;;;;;;;;22.96;27.42;101231.03;5071380;28;19920;-83
2022/09/06 01:16:17;;;;;;;;;;;;;;;22.95;27.38;101241.34;5068731;28;20433;-82
2022/09/06 01:18:53;;;;;;;;;;;;;;;22.94;27.28;101234.03;5072222;28;19927;-81
2022/09/06 01:21:29;;;;;;;;;;;;;;;22.93;27.57;101228.66;5085182;28;19986;-80
2022/09/06 01:24:11;;;;;;;;;;;;;;;22.91;28.41;101228.03;5071805;28;20028;-80
2022/09/06 01:26:57;;;;;;;;;;;;;;;22.88;28.18;101223.69;5059689;28;20503;-81
2022/09/06 01:29:32;;;;;;;;;;;;;;;22.87;28.01;101212.75;5069450;28;20013;-80
2022/09/06 01:32:04;;;;;;;;;;;;;;;22.84;28.65;101205.63;5068219;28;19956;-80
2022/09/06 01:34:35;;;;;;;;;;;;;;;22.81;28.49;101185.66;5070785;28;19936;-80
2022/09/06 01:37:06;;;;;;;;;;;;;;;22.78;28.44;101200.03;5070103;28;19924;-80
2022/09/06 01:39:38;;;;;;;;;;;;;;;22.73;28.83;101209.03;5070430;28;19955;-80
2022/09/06 01:42:09;;;;;;;;;;;;;;;22.71;28.46;101218.66;5072341;28;19927;-80
2022/09/06 01:44:41;;;;;;;;;;;;;;;22.66;29.05;101201.69;5072350;28;19974;-81
2022/09/06 01:47:14;;;;;;;;;;;;;;;22.62;29.00;101190.06;5071152;28;19921;-81
2022/09/06 01:49:49;;;;;;;;;;;;;;;22.59;29.31;101171.81;5069413;28;19975;-79
2022/09/06 01:52:20;;;;;;;;;;;;;;;22.54;29.18;101170.72;5061740;28;20341;-79
2022/09/06 01:54:58;;;;;;;;;;;;;;;22.50;29.64;101192.56;5054681;28;20367;-79
2022/09/06 01:57:35;;;;;;;;;;;;;;;22.46;29.54;101207.97;5052807;28;20383;-79
2022/09/06 02:00:08;;;;;;;;;;;;;;;22.44;29.43;101231.53;5057849;28;19932;-80
2022/09/06 02:02:44;;;;;;;;;;;;;;;22.40;30.04;101241.38;5069410;28;19920;-80
2022/09/06 02:05:16;;;;;;;;;;;;;;;22.36;29.86;101234.47;5069788;28;20379;-80
2022/09/06 02:07:45;;;;;;;;;;;;;;;22.33;30.09;101240.47;5059103;28;19999;-80
2022/09/06 02:10:17;;;;;;;;;;;;;;;22.28;30.21;101241.94;5069056;28;19928;-80
2022/09/06 02:12:47;;;;;;;;;;;;;;;22.24;30.30;101235.06;5069155;28;19920;-80
2022/09/06 02:15:21;;;;;;;;;;;;;;;22.20;30.49;101222.56;5061505;28;19928;-80
2022/09/06 02:17:50;;;;;;;;;;;;;;;22.18;30.64;101234.97;5058035;28;20622;-80
2022/09/06 02:20:21;;;;;;;;;;;;;;;22.13;30.82;101216.09;5070464;28;19970;-80
2022/09/06 02:22:50;;;;;;;;;;;;;;;22.10;31.59;101215.59;5068626;28;19989;-81
2022/09/06 02:25:22;;;;;;;;;;;;;;;22.04;31.16;101206.13;5061714;28;20648;-81
2022/09/06 02:27:50;;;;;;;;;;;;;;;22.00;30.98;101202.03;5069808;28;19920;-81
2022/09/06 02:30:20;;;;;;;;;;;;;;;21.94;32.04;101197.25;5059044;28;19931;-80
2022/09/06 02:32:49;;;;;;;;;;;;;;;21.89;31.94;101200.63;5068462;28;20025;-81
2022/09/06 02:35:18;;;;;;;;;;;;;;;21.84;32.22;101192.03;5070469;28;19974;-81
2022/09/06 02:37:46;;;;;;;;;;;;;;;21.77;32.22;101185.50;5068376;28;19920;-81
2022/09/06 02:40:14;;;;;;;;;;;;;;;21.73;32.33;101186.97;5091192;28;19924;-81
2022/09/06 02:42:42;;;;;;;;;;;;;;;21.68;31.55;101181.16;5074449;28;20359;-81
2022/09/06 02:45:11;;;;;;;;;;;;;;;21.64;32.05;101182.59;5066908;28;20442;-81
2022/09/06 02:47:41;;;;;;;;;;;;;;;21.59;32.16;101170.34;5062083;28;19927;-82
2022/09/06 02:50:09;;;;;;;;;;;;;;;21.55;32.47;101174.56;5060785;28;19924;-81
2022/09/06 02:52:37;;;;;;;;;;;;;;;21.49;32.45;101173.44;5086739;28;19921;-81
2022/09/06 02:55:06;;;;;;;;;;;;;;;21.44;33.32;101162.88;5088941;28;19920;-82
2022/09/06 02:57:35;;;;;;;;;;;;;;;21.41;32.66;101156.88;5069850;28;19978;-82
2022/09/06 03:00:04;;;;;;;;;;;;;;;21.35;33.15;101158.53;5067531;28;19974;-81
2022/09/06 03:02:32;;;;;;;;;;;;;;;21.32;33.68;101161.72;5068243;28;20375;-82
2022/09/06 03:05:02;;;;;;;;;;;;;;;21.27;34.05;101150.31;5058384;28;19927;-81
2022/09/06 03:07:30;;;;;;;;;;;;;;;21.22;33.78;101144.44;5057627;28;19967;-81
2022/09/06 03:09:59;;;;;;;;;;;;;;;21.17;35.09;101132.16;5075200;28;19924;-81
2022/09/06 03:12:27;;;;;;;;;;;;;;;21.13;34.34;101127.00;5072887;28;19920;-82
2022/09/06 03:14:55;;;;;;;;;;;;;;;21.07;34.86;101136.13;5073083;28;19928;-81
2022/09/06 03:17:23;;;;;;;;;;;;;;;21.04;33.88;101133.72;5079432;28;19981;-81
2022/09/06 03:19:52;;;;;;;;;;;;;;;21.00;34.04;101143.53;5068414;28;20447;-82
2022/09/06 03:22:21;;;;;;;;;;;;;;;20.97;34.31;101134.72;5090026;28;19920;-81
2022/09/06 03:24:49;;;;;;;;;;;;;;;20.92;34.39;101143.66;5078786;28;19971;-81
2022/09/06 03:27:17;;;;;;;;;;;;;;;20.90;33.99;101150.47;5089647;28;19920;-81
2022/09/06 03:29:45;;;;;;;;;;;;;;;20.88;33.68;101147.88;5064665;28;19995;-82
2022/09/06 03:32:13;;;;;;;;;;;;;;;20.86;34.10;101157.50;5064773;28;20022;-82
2022/09/06 03:34:41;;;;;;;;;;;;;;;20.84;33.83;101151.25;5064159;28;20411;-81
2022/09/06 03:37:09;;;;;;;;;;;;;;;20.83;33.60;101161.53;5068138;28;19927;-81
2022/09/06 03:39:39;;;;;;;;;;;;;;;20.84;34.20;101162.38;5070405;28;20382;-81
2022/09/06 03:42:07;;;;;;;;;;;;;;;20.81;35.06;101146.94;5074671;28;19920;-81
2022/09/06 03:44:39;;;;;;;;;;;;;;;20.79;34.98;101149.03;5072768;28;19975;-81
2022/09/06 03:47:07;;;;;;;;;;;;;;;20.78;35.06;101150.09;5066737;28;19928;-81
2022/09/06 03:49:35;;;;;;;;;;;;;;;20.77;34.48;101162.31;5073818;28;19970;-82
2022/09/06 03:52:03;;;;;;;;;;;;;;;20.73;34.60;101159.03;5065698;28;20012;-82
2022/09/06 03:54:31;;;;;;;;;;;;;;;20.72;34.53;101162.00;5073100;28;19920;-82
2022/09/06 03:57:00;;;;;;;;;;;;;;;20.71;34.49;101158.34;5074663;28;20352;-81
2022/09/06 03:59:29;;;;;;;;;;;;;;;20.68;35.11;101153.22;5064308;28;19986;-81
2022/09/06 04:01:57;;;;;;;;;;;;;;;20.67;34.75;101145.06;5069747;28;20278;-82
2022/09/06 04:04:25;;;;;;;;;;;;;;;20.65;34.98;101147.16;5074741;28;19929;-81
2022/09/06 04:06:53;;;;;;;;;;;;;;;20.62;34.64;101148.41;5068551;28;19920;-81
2022/09/06 04:09:22;;;;;;;;;;;;;;;20.60;34.72;101142.19;5071618;28;19999;-81
2022/09/06 04:11:50;;;;;;;;;;;;;;;20.59;34.36;101137.69;5061945;28;19920;-82
2022/09/06 04:14:19;;;;;;;;;;;;;;;20.58;34.09;101140.63;5068920;28;19934;-83
2022/09/06 04:16:47;;;;;;;;;;;;;;;20.56;34.82;101143.59;5075041;28;20553;-82
2022/09/06 04:19:15;;;;;;;;;;;;;;;20.55;34.62;101127.09;5066775;28;19928;-83
2022/09/06 04:21:44;;;;;;;;;;;;;;;20.52;34.57;101142.25;5067375;28;20381;-83
2022/09/06 04:24:12;;;;;;;;;;;;;;;20.50;35.65;101133.25;5073502;28;19973;-84
2022/09/06 04:26:40;;;;;;;;;;;;;;;20.48;35.36;101134.47;5081601;28;19920;-81
2022/09/06 04:29:09;;;;;;;;;;;;;;;20.46;34.74;101144.91;5062079;28;19926;-80
2022/09/06 04:31:39;;;;;;;;;;;;;;;20.43;35.36;101150.88;5058896;28;20020;-83
2022/09/06 04:34:07;;;;;;;;;;;;;;;20.40;34.97;101146.56;5067220;28;19920;-82
2022/09/06 04:36:36;;;;;;;;;;;;;;;20.37;34.71;101145.03;5073727;28;20007;-82
2022/09/06 04:39:05;;;;;;;;;;;;;;;20.37;34.70;101149.72;5068342;28;19925;-83
2022/09/06 04:41:33;;;;;;;;;;;;;;;20.33;35.32;101152.03;5069191;28;20432;-80
2022/09/06 04:44:04;;;;;;;;;;;;;;;20.32;35.71;101163.34;5072386;28;20310;-80
2022/09/06 04:46:32;;;;;;;;;;;;;;;20.29;35.40;101156.22;5065351;28;19925;-81
2022/09/06 04:49:02;;;;;;;;;;;;;;;20.28;35.30;101157.28;5052970;28;19928;-80
2022/09/06 04:51:30;;;;;;;;;;;;;;;20.27;35.13;101151.94;5066171;28;19981;-81
2022/09/06 04:53:58;;;;;;;;;;;;;;;20.24;35.13;101150.41;5063275;28;19990;-81
2022/09/06 04:56:27;;;;;;;;;;;;;;;20.22;35.44;101149.72;5070120;28;19928;-81
2022/09/06 04:58:55;;;;;;;;;;;;;;;20.21;35.33;101149.91;5061281;28;19928;-80
2022/09/06 05:01:24;;;;;;;;;;;;;;;20.19;35.57;101154.81;5060012;28;19928;-80
2022/09/06 05:03:53;;;;;;;;;;;;;;;20.17;35.54;101152.22;5068595;28;19924;-80
2022/09/06 05:06:25;;;;;;;;;;;;;;;20.16;35.75;101160.75;5069094;28;19921;-80
2022/09/06 05:08:53;;;;;;;;;;;;;;;20.14;35.66;101157.28;5065332;28;19927;-80
2022/09/06 05:11:21;;;;;;;;;;;;;;;20.12;35.51;101164.97;5066142;28;20011;-80
2022/09/06 05:13:50;;;;;;;;;;;;;;;20.10;35.69;101161.50;5064260;28;19927;-81
2022/09/06 05:16:18;;;;;;;;;;;;;;;20.07;35.39;101165.50;5063242;28;20011;-81
2022/09/06 05:18:46;;;;;;;;;;;;;;;20.05;35.98;101167.63;5063883;28;19924;-81
2022/09/06 05:21:14;;;;;;;;;;;;;;;20.04;35.45;101167.84;5062713;28;19920;-81
2022/09/06 05:23:44;;;;;;;;;;;;;;;20.01;36.30;101169.94;5067573;28;19920;-82
2022/09/06 05:26:12;;;;;;;;;;;;;;;20.00;35.54;101164.56;5066185;28;19924;-82
2022/09/06 05:28:40;;;;;;;;;;;;;;;19.97;36.14;101176.03;5065087;28;19927;-86
2022/09/06 05:31:09;;;;;;;;;;;;;;;19.96;36.01;101174.28;5067998;28;19921;-81
2022/09/06 05:33:38;;;;;;;;;;;;;;;19.92;36.38;101171.06;5081773;28;19921;-82
2022/09/06 05:36:07;;;;;;;;;;;;;;;19.91;36.15;101174.88;5067658;28;19963;-83
2022/09/06 05:38:35;;;;;;;;;;;;;;;19.90;36.69;101172.25;5066549;28;20013;-82
2022/09/06 05:41:04;;;;;;;;;;;;;;;19.88;36.72;101177.13;5071649;28;19920;-82
2022/09/06 05:43:34;;;;;;;;;;;;;;;19.88;36.55;101174.34;5068118;28;19935;-83
2022/09/06 05:46:04;;;;;;;;;;;;;;;19.87;36.10;101169.88;5065717;28;19925;-81
2022/09/06 05:48:32;;;;;;;;;;;;;;;19.87;36.07;101173.47;5067651;28;19924;-81
2022/09/06 05:51:05;;;;;;;;;;;;;;;19.86;36.14;101177.34;5066169;28;19920;-81
2022/09/06 05:53:34;;;;;;;;;;;;;;;19.88;36.65;101179.91;5066554;28;19920;-84
2022/09/06 05:56:04;;;;;;;;;;;;;;;19.87;36.35;101172.66;5069804;28;19928;-83
2022/09/06 05:58:32;;;;;;;;;;;;;;;19.89;36.60;101173.28;5060687;28;19927;-82
2022/09/06 06:01:04;;;;;;;;;;;;;;;19.89;36.64;101178.84;5064814;28;19928;-83
2022/09/06 06:03:33;;;;;;;;;;;;;;;19.90;36.82;101180.59;5076264;28;19920;-84
2022/09/06 06:06:01;;;;;;;;;;;;;;;19.90;36.53;101169.47;5065728;28;19959;-83
2022/09/06 06:08:29;;;;;;;;;;;;;;;19.91;37.13;101171.22;5068342;28;19957;-85
2022/09/06 06:10:58;;;;;;;;;;;;;;;19.92;36.74;101176.59;5068120;28;19928;-84
2022/09/06 06:13:33;;;;;;;;;;;;;;;19.93;36.93;101180.25;5062433;28;19954;-81
2022/09/06 06:16:02;;;;;;;;;;;;;;;19.94;36.93;101184.75;5071271;28;20113;-84
2022/09/06 06:18:30;;;;;;;;;;;;;;;19.95;36.82;101180.94;5068860;28;19928;-82
2022/09/06 06:21:08;;;;;;;;;;;;;;;19.97;37.10;101181.59;5078164;28;19920;-84
2022/09/06 06:23:37;;;;;;;;;;;;;;;19.99;37.28;101182.25;5056002;28;19932;-83
2022/09/06 06:26:05;;;;;;;;;;;;;;;20.01;36.67;101175.47;5078874;28;19927;-84
2022/09/06 06:28:36;;;;;;;;;;;;;;;20.04;36.67;101178.94;5064608;28;19946;-87
2022/09/06 06:31:05;;;;;;;;;;;;;;;20.06;37.00;101169.34;5070819;28;19971;-87
2022/09/06 06:33:35;;;;;;;;;;;;;;;20.10;36.91;101172.63;5066700;28;19924;-87
2022/09/06 06:36:05;;;;;;;;;;;;;;;20.13;36.61;101170.31;5068215;28;19920;-84
2022/09/06 06:38:35;;;;;;;;;;;;;;;20.17;36.72;101171.66;5057767;28;19953;-83
2022/09/06 06:41:04;;;;;;;;;;;;;;;20.21;37.05;101166.56;5067227;28;19921;-85
2022/09/06 06:43:39;;;;;;;;;;;;;;;20.25;36.61;101159.59;5068412;28;19924;-86
2022/09/06 06:46:08;;;;;;;;;;;;;;;20.29;37.02;101159.00;5063038;28;19920;-85
2022/09/06 06:48:38;;;;;;;;;;;;;;;20.35;37.04;101160.19;5061996;28;19920;-85
2022/09/06 06:51:06;;;;;;;;;;;;;;;20.40;36.62;101155.78;5070940;28;19947;-85
2022/09/06 06:53:35;;;;;;;;;;;;;;;20.48;36.41;101156.72;5070368;28;19987;-88
2022/09/06 06:56:13;;;;;;;;;;;;;;;20.55;36.82;101157.66;5071408;28;19946;-87
2022/09/06 06:58:43;;;;;;;;;;;;;;;20.65;36.81;101150.81;5060276;28;19963;-86
2022/09/06 07:01:12;;;;;;;;;;;;;;;20.80;37.38;101159.13;5062893;28;20438;-85
2022/09/06 07:03:41;;;;;;;;;;;;;;;20.98;37.37;101161.47;5060832;28;19974;-85
2022/09/06 07:06:09;;;;;;;;;;;;;;;21.16;38.86;101156.34;5062954;28;19960;-82
2022/09/06 07:08:38;;;;;;;;;;;;;;;21.43;37.69;101154.75;5065681;28;19921;-79
2022/09/06 07:11:06;;;;;;;;;;;;;;;21.68;37.82;101156.09;5068085;28;19935;-79
2022/09/06 07:13:35;;;;;;;;;;;;;;;21.99;37.91;101154.88;5062720;28;20203;-80
2022/09/06 07:16:08;;;;;;;;;;;;;;;22.31;37.44;101154.25;5072284;28;19920;-80
2022/09/06 07:18:40;;;;;;;;;;;;;;;22.66;37.28;101149.53;5071880;28;19928;-80
2022/09/06 07:21:09;;;;;;;;;;;;;;;23.03;37.43;101156.56;5071226;28;19924;-79
2022/09/06 07:23:58;;;;;;;;;;;;;;;23.46;37.20;101151.56;5068604;28;20256;-79
2022/09/06 07:26:36;;;;;;;;;;;;;;;23.88;36.78;101155.94;5067808;28;19920;-79
2022/09/06 07:29:05;;;;;;;;;;;;;;;24.24;36.86;101152.66;5069527;28;19920;-79
2022/09/06 07:31:35;;;;;;;;;;;;;;;24.62;36.11;101154.75;5068510;28;20321;-79
2022/09/06 07:34:25;;;;;;;;;;;;;;;25.03;35.64;101155.28;5061138;28;20339;-79
2022/09/06 07:36:53;;;;;;;;;;;;;;;25.37;35.37;101156.81;5075828;28;20007;-79
2022/09/06 07:39:21;;;;;;;;;;;;;;;25.70;34.82;101147.34;5074940;28;20259;-79
2022/09/06 07:41:49;;;;;;;;;;;;;;;25.98;34.03;101145.78;5074479;28;19928;-79
2022/09/06 07:44:18;;;;;;;;;;;;;;;26.24;33.61;101146.66;5059077;28;19969;-79
2022/09/06 07:46:48;;;;;;;;;;;;;;;26.48;33.53;101142.94;5069282;28;19972;-79
2022/09/06 07:49:16;;;;;;;;;;;;;;;26.68;32.95;101154.00;5060618;28;19920;-79
2022/09/06 07:51:44;;;;;;;;;;;;;;;26.88;32.67;101153.72;5071001;28;19924;-79
2022/09/06 07:54:12;;;;;;;;;;;;;;;27.02;32.41;101152.50;5062359;28;20031;-79
2022/09/06 07:56:57;;;;;;;;;;;;;;;27.19;32.19;101155.53;5059878;28;19920;-79
2022/09/06 07:59:26;;;;;;;;;;;;;;;27.31;31.96;101162.91;5068545;28;19921;-79
2022/09/06 08:01:55;;;;;;;;;;;;;;;27.44;31.83;101170.31;5067738;28;19928;-78
2022/09/06 08:04:24;;;;;;;;;;;;;;;27.56;31.44;101176.81;5058405;28;19994;-79
2022/09/06 08:06:52;;;;;;;;;;;;;;;27.66;31.65;101179.91;5067599;28;20051;-79
2022/09/06 08:09:40;;;;;;;;;;;;;;;27.78;30.95;101163.09;5066500;28;19928;-80
2022/09/06 08:12:08;;;;;;;;;;;;;;;27.86;30.94;101166.41;5065165;28;19927;-80
2022/09/06 08:14:38;;;;;;;;;;;;;;;27.93;30.70;101163.50;5068617;28;19995;-78
2022/09/06 08:17:07;;;;;;;;;;;;;;;28.00;30.73;101158.59;5070892;28;19920;-79
2022/09/06 08:19:36;;;;;;;;;;;;;;;28.05;30.53;101157.88;5072133;28;19921;-80
2022/09/06 08:22:04;;;;;;;;;;;;;;;28.11;30.69;101165.34;5060340;28;19924;-79
2022/09/06 08:24:34;;;;;;;;;;;;;;;28.17;30.10;101176.50;5075289;28;19958;-79
2022/09/06 08:27:02;;;;;;;;;;;;;;;28.22;30.35;101165.38;5068801;28;19962;-81
2022/09/06 08:29:30;;;;;;;;;;;;;;;28.27;30.05;101169.44;5066799;28;19928;-80
2022/09/06 08:31:58;;;;;;;;;;;;;;;28.31;29.77;101165.00;5072246;28;20015;-82
2022/09/06 08:34:28;;;;;;;;;;;;;;;28.33;29.68;101157.19;5061144;28;19924;-82
2022/09/06 08:36:56;;;;;;;;;;;;;;;28.36;29.55;101163.16;5071453;28;20007;-80
2022/09/06 08:39:24;;;;;;;;;;;;;;;28.39;29.71;101151.44;5053813;28;19921;-81
2022/09/06 08:41:55;;;;;;;;;;;;;;;28.44;29.38;101150.72;5072756;28;19921;-81
2022/09/06 08:44:27;;;;;;;;;;;;;;;28.46;29.19;101143.72;5066126;28;20330;-80
2022/09/06 08:47:19;;;;;;;;;;;;;;;28.48;28.78;101158.41;5070370;28;20012;-80
2022/09/06 08:49:51;;;;;;;;;;;;;;;28.49;29.09;101151.66;5073749;28;19970;-80
2022/09/06 08:52:25;;;;;;;;;;;;;;;28.51;28.81;101152.28;5073253;28;19927;-80
2022/09/06 08:54:55;;;;;;;;;;;;;;;28.52;28.97;101139.06;5066663;28;20295;-80
2022/09/06 08:57:31;;;;;;;;;;;;;;;28.53;27.68;101152.00;5059272;28;20359;-80
2022/09/06 09:00:06;;;;;;;;;;;;;;;28.56;28.27;101152.38;5060837;28;19972;-79
2022/09/06 09:02:41;;;;;;;;;;;;;;;28.58;28.64;101138.06;5062610;28;19920;-79
2022/09/06 09:05:17;;;;;;;;;;;;;;;28.60;28.75;101138.69;5090302;28;20328;-79
2022/09/06 09:07:47;;;;;;;;;;;;;;;28.62;28.82;101140.13;5069774;28;19924;-79
2022/09/06 09:10:18;;;;;;;;;;;;;;;28.66;28.56;101143.31;5059612;28;20001;-80
2022/09/06 09:12:48;;;;;;;;;;;;;;;28.69;28.02;101140.00;5072170;28;20334;-81
2022/09/06 09:15:18;;;;;;;;;;;;;;;28.74;28.33;101139.28;5069602;28;19928;-81
2022/09/06 09:17:47;;;;;;;;;;;;;;;28.78;27.97;101129.22;5085935;28;20007;-80
2022/09/06 09:20:17;;;;;;;;;;;;;;;28.83;28.21;101133.03;5058439;28;20453;-79
2022/09/06 09:22:46;;;;;;;;;;;;;;;28.86;27.89;101126.03;5064646;28;19962;-79
2022/09/06 09:25:18;;;;;;;;;;;;;;;28.89;27.50;101115.13;5062272;28;19921;-79
2022/09/06 09:27:46;;;;;;;;;;;;;;;28.95;28.02;101121.72;5073247;28;19927;-80
2022/09/06 09:30:15;;;;;;;;;;;;;;;29.00;27.70;101121.84;5065296;28;19920;-80
2022/09/06 09:33:20;;;;;;;;;;;;;;;29.06;27.42;101117.13;5061254;28;19920;-81
2022/09/06 09:35:50;;;;;;;;;;;;;;;29.12;27.80;101104.84;5067804;28;19920;-79
2022/09/06 09:38:23;;;;;;;;;;;;;;;29.18;27.21;101113.16;5070100;28;19920;-79
2022/09/06 09:40:53;;;;;;;;;;;;;;;29.23;27.23;101113.31;5051617;28;19935;-79
2022/09/06 09:43:22;;;;;;;;;;;;;;;29.30;27.32;101107.50;5067367;28;19920;-80
2022/09/06 09:46:09;;;;;;;;;;;;;;;29.35;27.52;101105.63;5060394;28;20031;-81
2022/09/06 09:48:41;;;;;;;;;;;;;;;29.44;27.22;101108.03;5060997;28;19924;-81
2022/09/06 09:51:22;;;;;;;;;;;;;;;29.50;27.31;101099.44;5066644;28;20342;-80
2022/09/06 09:53:54;;;;;;;;;;;;;;;29.57;26.93;101088.84;5070239;28;20006;-80
2022/09/06 09:56:27;;;;;;;;;;;;;;;29.63;26.69;101093.44;5064209;28;19921;-80
2022/09/06 09:58:56;;;;;;;;;;;;;;;29.69;26.49;101086.78;5069561;28;19999;-81
2022/09/06 10:01:26;;;;;;;;;;;;;;;29.76;26.59;101089.44;5072015;28;20398;-80
2022/09/06 10:04:01;;;;;;;;;;;;;;;29.81;26.26;101083.91;5067221;28;19970;-80
2022/09/06 10:06:50;;;;;;;;;;;;;;;29.89;26.14;101082.63;5071661;28;19943;-81
2022/09/06 10:09:35;;;;;;;;;;;;;;;29.96;26.34;101080.47;5070485;28;20011;-81
2022/09/06 10:12:05;;;;;;;;;;;;;;;30.01;26.02;101072.94;5071086;28;19934;-81
2022/09/06 10:14:41;;;;;;;;;;;;;;;30.09;25.73;101072.50;5062976;28;20011;-80
2022/09/06 10:17:32;;;;;;;;;;;;;;;30.16;26.03;101075.16;5059939;28;19924;-79
2022/09/06 10:20:02;;;;;;;;;;;;;;;30.22;25.71;101074.09;5068053;28;20011;-80
2022/09/06 10:22:35;;;;;;;;;;;;;;;30.29;26.29;101069.16;5070836;28;19974;-80
2022/09/06 10:25:14;;;;;;;;;;;;;;;30.35;25.67;101082.22;5063810;28;20011;-80
2022/09/06 10:27:50;;;;;;;;;;;;;;;30.44;25.91;101083.50;5064354;28;20310;-80
2022/09/06 10:30:41;;;;;;;;;;;;;;;30.52;25.82;101082.19;5064011;28;19924;-80
2022/09/06 10:33:14;;;;;;;;;;;;;;;30.59;25.34;101093.28;5068099;28;19942;-79
2022/09/06 10:35:42;;;;;;;;;;;;;;;30.66;25.48;101108.91;5067150;28;21830;-80
2022/09/06 10:38:29;;;;;;;;;;;;;;;30.72;25.85;101090.97;5087194;28;19928;-80
2022/09/06 10:41:07;;;;;;;;;;;;;;;30.80;24.94;101092.47;5066080;28;19924;-77
2022/09/06 10:43:41;;;;;;;;;;;;;;;30.88;24.89;101079.84;5065285;28;20332;-77
2022/09/06 10:46:11;;;;;;;;;;;;;;;30.93;25.09;101080.75;5059590;28;20007;-78
2022/09/06 10:48:41;;;;;;;;;;;;;;;30.99;24.65;101074.03;5066603;28;19921;-78
2022/09/06 10:51:17;;;;;;;;;;;;;;;31.05;24.28;101072.13;5065604;28;19974;-78
2022/09/06 10:53:48;;;;;;;;;;;;;;;31.10;24.36;101067.38;5053923;28;20338;-77
2022/09/06 10:56:21;;;;;;;;;;;;;;;31.15;24.38;101073.09;5069582;28;19920;-78
2022/09/06 10:58:52;;;;;;;;;;;;;;;31.20;24.59;101083.63;5059569;28;19970;-81
2022/09/06 11:01:46;;;;;;;;;;;;;;;31.24;24.09;101076.31;5070559;28;20016;-79
2022/09/06 11:04:19;;;;;;;;;;;;;;;31.28;24.67;101074.66;5064332;28;20293;-79
2022/09/06 11:06:50;;;;;;;;;;;;;;;31.34;24.18;101081.22;5064814;28;19921;-79
2022/09/06 11:09:23;;;;;;;;;;;;;;;31.38;24.65;101079.56;5061756;28;19925;-80
2022/09/06 11:11:59;;;;;;;;;;;;;;;31.41;23.73;101081.84;5074683;28;20022;-87
2022/09/06 11:14:28;;;;;;;;;;;;;;;31.46;24.45;101073.44;5075767;28;19904;-87
2022/09/06 11:17:03;;;;;;;;;;;;;;;31.49;24.35;101065.25;5071914;28;20019;-86
2022/09/06 11:19:33;;;;;;;;;;;;;;;31.55;24.23;101060.50;5063568;28;19935;-87
2022/09/06 11:22:15;;;;;;;;;;;;;;;31.59;23.75;101064.47;5065164;28;19927;-87
2022/09/06 11:25:04;;;;;;;;;;;;;;;31.64;23.28;101061.72;5069248;28;19920;-88
2022/09/06 11:27:36;;;;;;;;;;;;;;;31.68;23.45;101062.03;5071992;28;19927;-87
2022/09/06 11:30:08;;;;;;;;;;;;;;;31.71;23.63;101064.34;5077977;28;19908;-87
2022/09/06 11:32:38;;;;;;;;;;;;;;;31.73;23.37;101062.09;5081304;28;19996;-86
2022/09/06 11:35:08;;;;;;;;;;;;;;;31.73;23.13;101068.63;5071657;28;20576;-86
2022/09/06 11:37:39;;;;;;;;;;;;;;;31.75;22.88;101072.00;5071756;28;19920;-85
2022/09/06 11:40:12;;;;;;;;;;;;;;;31.76;23.35;101072.88;5067445;28;20374;-84
2022/09/06 11:43:11;;;;;;;;;;;;;;;31.75;23.25;101063.53;5070729;28;19996;-83
2022/09/06 11:45:44;;;;;;;;;;;;;;;31.75;23.04;101066.34;5067091;28;19920;-84
2022/09/06 11:48:34;;;;;;;;;;;;;;;31.76;23.75;101061.53;5056641;28;19990;-85
2022/09/06 11:51:05;;;;;;;;;;;;;;;31.75;23.50;101065.50;5068037;28;19924;-86
2022/09/06 11:53:56;;;;;;;;;;;;;;;31.77;23.31;101066.94;5065345;28;19920;-86
2022/09/06 11:56:28;;;;;;;;;;;;;;;31.78;23.50;101057.31;5089128;28;19920;-86
2022/09/06 11:59:00;;;;;;;;;;;;;;;31.82;22.98;101057.63;5070737;28;19920;-86
2022/09/06 12:01:39;;;;;;;;;;;;;;;31.84;23.34;101055.38;5067682;28;19924;-86
2022/09/06 12:04:08;;;;;;;;;;;;;;;31.87;23.59;101058.53;5070713;28;20082;-86
2022/09/06 12:06:42;;;;;;;;;;;;;;;31.90;22.96;101057.13;5071296;28;19975;-85
2022/09/06 12:09:32;;;;;;;;;;;;;;;31.93;23.42;101053.75;5070986;28;19924;-84
2022/09/06 12:12:00;;;;;;;;;;;;;;;31.96;23.32;101048.41;5068880;28;19928;-86
2022/09/06 12:14:45;;;;;;;;;;;;;;;32.00;23.41;101043.03;5082886;28;19920;-86
2022/09/06 12:17:22;;;;;;;;;;;;;;;32.04;22.87;101040.53;5074389;28;20019;-82
2022/09/06 12:19:51;;;;;;;;;;;;;;;32.09;23.17;101040.53;5072314;28;19955;-79
2022/09/06 12:22:39;;;;;;;;;;;;;;;32.12;23.21;101032.38;5061114;28;19954;-85
2022/09/06 12:25:15;;;;;;;;;;;;;;;32.17;23.11;101037.22;5074350;28;19934;-84
2022/09/06 12:27:52;;;;;;;;;;;;;;;32.19;23.17;101035.84;5071906;28;20386;-83
2022/09/06 12:30:33;;;;;;;;;;;;;;;32.22;23.10;101042.94;5068370;28;20339;-85
2022/09/06 12:33:02;;;;;;;;;;;;;;;32.26;22.81;101038.41;5065113;28;19959;-84
2022/09/06 12:35:31;;;;;;;;;;;;;;;32.28;23.09;101037.03;5068719;28;19927;-83
2022/09/06 12:38:23;;;;;;;;;;;;;;;32.33;22.49;101039.00;5080345;28;19931;-82
2022/09/06 12:40:56;;;;;;;;;;;;;;;32.36;22.46;101040.44;5085213;28;19932;-84
2022/09/06 12:43:26;;;;;;;;;;;;;;;32.40;22.69;101035.94;5064682;28;19924;-84
2022/09/06 12:45:59;;;;;;;;;;;;;;;32.41;22.86;101026.31;5065117;28;20132;-87
2022/09/06 12:48:29;;;;;;;;;;;;;;;32.44;22.69;101028.59;5061798;28;19963;-85
2022/09/06 12:51:02;;;;;;;;;;;;;;;32.46;22.93;101023.50;5072921;28;20283;-83
2022/09/06 12:53:30;;;;;;;;;;;;;;;32.48;22.44;101016.41;5068631;28;19921;-83
2022/09/06 12:56:03;;;;;;;;;;;;;;;32.51;22.71;101006.53;5070738;28;20376;-84
2022/09/06 12:58:31;;;;;;;;;;;;;;;32.54;22.92;101005.97;5066483;28;20442;-85